createdAt,value
2023-02-02T00:02:04.074Z,3.60
2023-02-02T00:07:10.767Z,3.60
2023-02-02T00:12:14.072Z,3.70
2023-02-02T00:17:17.386Z,3.60
2023-02-02T00:22:31.144Z,3.60
2023-02-02T00:27:34.323Z,3.60
2023-02-02T00:32:48.417Z,3.60
2023-02-02T00:37:53.134Z,3.60
2023-02-02T00:43:04.492Z,3.60
2023-02-02T00:48:15.749Z,3.60
2023-02-02T00:53:20.421Z,3.60
2023-02-02T00:58:25.673Z,3.60
2023-02-02T01:03:39.149Z,3.60
2023-02-02T01:08:51.832Z,3.60
2023-02-02T01:13:55.075Z,3.60
2023-02-02T01:18:59.435Z,3.70
2023-02-02T01:24:04.290Z,3.60
2023-02-02T01:29:09.693Z,3.70
2023-02-02T01:34:12.937Z,3.80
2023-02-02T01:39:17.649Z,3.80
2023-02-02T01:45:07.416Z,3.80
2023-02-02T01:50:12.576Z,3.80
2023-02-02T01:55:32.169Z,3.70
2023-02-02T02:00:35.522Z,3.70
2023-02-02T02:05:43.707Z,3.70
2023-02-02T02:10:49.547Z,3.60
2023-02-02T02:16:20.509Z,3.70
2023-02-02T02:22:05.841Z,3.70
2023-02-02T02:27:40.648Z,3.70
2023-02-02T02:32:51.524Z,3.70
2023-02-02T02:38:17.951Z,3.70
2023-02-02T02:43:31.877Z,3.60
2023-02-02T02:48:36.547Z,3.50
2023-02-02T02:53:41.920Z,3.50
2023-02-02T02:58:51.639Z,3.40
2023-02-02T03:04:07.055Z,3.40
2023-02-02T03:09:24.451Z,3.30
2023-02-02T03:14:29.645Z,3.30
2023-02-02T03:19:34.418Z,3.30
2023-02-02T03:24:39.654Z,3.40
2023-02-02T03:29:43.939Z,3.50
2023-02-02T03:34:50.522Z,3.50
2023-02-02T03:39:54.792Z,3.60
2023-02-02T03:44:57.997Z,3.50
2023-02-02T03:50:08.166Z,3.50
2023-02-02T03:55:12.358Z,3.50
2023-02-02T04:00:22.577Z,3.50
2023-02-02T04:05:28.197Z,3.50
2023-02-02T04:10:39.801Z,3.60
2023-02-02T04:15:44.120Z,3.60
2023-02-02T04:20:58.550Z,3.60
2023-02-02T04:26:02.124Z,3.60
2023-02-02T04:31:08.169Z,3.70
2023-02-02T04:36:37.428Z,3.70
2023-02-02T04:42:00.477Z,3.70
2023-02-02T04:47:05.835Z,3.80
2023-02-02T04:52:13.570Z,3.90
2023-02-02T04:57:22.031Z,3.90
2023-02-02T05:02:26.237Z,3.90
2023-02-02T05:07:40.262Z,3.80
2023-02-02T05:12:46.550Z,3.80
2023-02-02T05:17:49.966Z,3.70
2023-02-02T05:22:54.664Z,3.80
2023-02-02T05:27:58.043Z,3.80
2023-02-02T05:33:13.241Z,3.80
2023-02-02T05:38:18.058Z,3.80
2023-02-02T05:43:26.756Z,3.80
2023-02-02T05:48:36.616Z,3.70
2023-02-02T05:53:52.227Z,3.70
2023-02-02T05:58:55.558Z,3.90
2023-02-02T06:03:59.018Z,3.80
2023-02-02T06:09:08.201Z,3.80
2023-02-02T06:14:27.863Z,3.80
2023-02-02T06:19:41.290Z,3.90
2023-02-02T06:24:46.032Z,3.90
2023-02-02T06:29:49.460Z,3.80
2023-02-02T06:34:59.923Z,3.90
2023-02-02T06:40:04.869Z,3.80
2023-02-02T06:45:08.818Z,3.80
2023-02-02T06:50:13.114Z,3.80
2023-02-02T06:55:18.352Z,3.80
2023-02-02T07:00:22.497Z,3.80
2023-02-02T07:05:27.178Z,3.90
2023-02-02T07:11:11.258Z,3.80
2023-02-02T07:15:57.277Z,3.90
2023-02-02T07:21:01.091Z,3.90
2023-02-02T07:26:07.802Z,3.90
2023-02-02T07:31:15.691Z,4.00
2023-02-02T07:36:21.054Z,3.90
2023-02-02T07:41:26.148Z,4.00
2023-02-02T07:46:29.537Z,4.00
2023-02-02T07:51:33.907Z,4.00
2023-02-02T07:56:39.913Z,4.00
2023-02-02T08:01:43.376Z,4.00
2023-02-02T08:06:48.348Z,4.00
2023-02-02T08:11:52.994Z,4.00
2023-02-02T08:16:56.306Z,4.00
2023-02-02T08:21:59.568Z,4.20
2023-02-02T08:27:04.360Z,4.20
2023-02-02T08:32:07.652Z,4.20
2023-02-02T08:37:10.919Z,4.20
2023-02-02T08:42:15.704Z,4.30
2023-02-02T08:47:19.066Z,4.20
2023-02-02T08:52:24.842Z,4.40
2023-02-02T08:57:32.689Z,4.80
2023-02-02T09:02:35.950Z,5.00
2023-02-02T09:07:39.099Z,5.10
2023-02-02T09:12:43.636Z,5.00
2023-02-02T09:17:46.684Z,4.80
2023-02-02T09:22:49.941Z,4.70
2023-02-02T09:27:54.590Z,4.60
2023-02-02T09:32:57.708Z,4.70
2023-02-02T09:38:01.031Z,4.60
2023-02-02T09:43:17.397Z,4.60
2023-02-02T09:48:30.245Z,4.60
2023-02-02T09:53:54.643Z,4.80
2023-02-02T09:59:18.754Z,4.90
2023-02-02T10:04:27.832Z,4.80
2023-02-02T10:09:39.522Z,4.90
2023-02-02T10:14:51.935Z,4.80
2023-02-02T10:20:01.865Z,4.70
2023-02-02T10:25:05.707Z,4.80
2023-02-02T10:30:19.253Z,4.80
2023-02-02T10:35:34.684Z,4.80
2023-02-02T10:40:48.760Z,4.90
2023-02-02T10:45:54.240Z,4.90
2023-02-02T10:50:59.582Z,4.80
2023-02-02T10:56:08.147Z,5.10
2023-02-02T11:01:14.002Z,5.10
2023-02-02T11:06:35.836Z,5.30
2023-02-02T11:11:42.344Z,5.50
2023-02-02T11:17:00.402Z,5.20
2023-02-02T11:22:04.893Z,5.10
2023-02-02T11:27:14.318Z,5.00
2023-02-02T11:32:28.854Z,4.90
2023-02-02T11:37:32.782Z,5.00
2023-02-02T11:42:36.070Z,5.00
2023-02-02T11:47:41.531Z,5.00
2023-02-02T11:52:47.495Z,5.00
2023-02-02T11:58:18.431Z,4.90
2023-02-02T12:03:32.977Z,5.00
2023-02-02T12:08:36.131Z,4.90
2023-02-02T12:13:50.072Z,5.00
2023-02-02T12:19:11.136Z,5.10
2023-02-02T12:24:38.961Z,5.10
2023-02-02T12:29:54.601Z,5.10
2023-02-02T12:35:21.533Z,5.10
2023-02-02T12:40:43.158Z,5.10
2023-02-02T12:46:03.534Z,5.10
2023-02-02T12:51:23.253Z,5.20
2023-02-02T12:56:34.208Z,5.30
2023-02-02T13:01:51.182Z,5.30
2023-02-02T13:07:21.963Z,5.40
2023-02-02T13:12:26.709Z,5.40
2023-02-02T13:17:35.091Z,5.40
2023-02-02T13:22:45.619Z,5.40
2023-02-02T13:27:50.138Z,5.40
2023-02-02T13:32:56.216Z,5.40
2023-02-02T13:38:07.783Z,5.40
2023-02-02T13:43:40.054Z,5.30
2023-02-02T13:48:54.657Z,5.20
2023-02-02T13:54:27.657Z,5.10
2023-02-02T13:59:54.266Z,5.10
2023-02-02T14:04:59.965Z,5.00
2023-02-02T14:10:04.465Z,5.00
2023-02-02T14:15:13.350Z,5.00
2023-02-02T14:20:41.770Z,5.00
2023-02-02T14:26:05.430Z,5.00
2023-02-02T14:31:30.352Z,5.00
2023-02-02T14:36:33.806Z,5.00
2023-02-02T14:42:30.132Z,5.10
2023-02-02T14:47:49.176Z,5.10
2023-02-02T14:53:04.979Z,5.10
2023-02-02T14:58:09.113Z,5.20
2023-02-02T15:03:36.666Z,5.20
2023-02-02T15:08:41.645Z,5.10
2023-02-02T15:13:51.133Z,5.10
2023-02-02T15:19:05.489Z,5.00
2023-02-02T15:24:20.610Z,5.10
2023-02-02T15:29:36.025Z,5.00
2023-02-02T15:34:45.145Z,5.00
2023-02-02T15:39:52.398Z,5.00
2023-02-02T15:44:59.280Z,4.90
2023-02-02T15:50:17.855Z,4.80
2023-02-02T15:55:23.513Z,4.90
2023-02-02T16:00:30.759Z,4.80
2023-02-02T16:05:48.672Z,4.80
2023-02-02T16:10:52.048Z,4.70
2023-02-02T16:16:01.584Z,4.70
2023-02-02T16:21:16.330Z,4.60
2023-02-02T16:26:23.212Z,4.70
2023-02-02T16:31:28.557Z,4.60
2023-02-02T16:36:34.499Z,4.60
2023-02-02T16:41:38.513Z,4.70
2023-02-02T16:46:46.094Z,4.70
2023-02-02T16:52:09.999Z,4.70
2023-02-02T16:57:20.629Z,4.70
2023-02-02T17:02:32.386Z,4.70
2023-02-02T17:07:39.016Z,4.70
2023-02-02T17:12:47.051Z,4.70
2023-02-02T17:17:50.779Z,4.70
2023-02-02T17:23:17.164Z,4.70
2023-02-02T17:28:22.617Z,4.70
2023-02-02T17:33:27.423Z,4.70
2023-02-02T17:38:37.630Z,4.70
2023-02-02T17:43:44.377Z,4.70
2023-02-02T17:48:50.503Z,4.70
2023-02-02T17:54:02.131Z,4.70
2023-02-02T17:59:12.369Z,4.80
2023-02-02T18:04:18.915Z,4.70
2023-02-02T18:09:35.512Z,4.80
2023-02-02T18:14:40.228Z,4.70
2023-02-02T18:19:45.216Z,4.80
2023-02-02T18:24:58.858Z,4.70
2023-02-02T18:30:03.408Z,4.70
2023-02-02T18:35:08.518Z,4.60
2023-02-02T18:40:20.302Z,4.60
2023-02-02T18:45:26.196Z,4.60
2023-02-02T18:50:34.863Z,4.50
2023-02-02T18:55:41.597Z,4.40
2023-02-02T19:00:48.188Z,4.40
2023-02-02T19:06:20.635Z,4.30
2023-02-02T19:11:36.231Z,4.40
2023-02-02T19:17:32.876Z,4.40
2023-02-02T19:22:42.771Z,4.40
2023-02-02T19:27:49.227Z,4.40
2023-02-02T19:32:52.647Z,4.40
2023-02-02T19:38:02.705Z,4.30
2023-02-02T19:43:24.207Z,4.20
2023-02-02T19:48:34.856Z,4.20
2023-02-02T19:53:42.526Z,4.20
2023-02-02T19:58:54.686Z,4.20
2023-02-02T20:04:04.313Z,4.20
2023-02-02T20:09:16.384Z,4.20
2023-02-02T20:14:37.009Z,4.20
2023-02-02T20:19:47.001Z,4.10
2023-02-02T20:24:51.370Z,4.00
2023-02-02T20:30:01.833Z,3.90
2023-02-02T20:35:22.037Z,3.80
2023-02-02T20:40:29.724Z,3.80
2023-02-02T20:45:35.474Z,3.90
2023-02-02T20:50:38.964Z,3.90
2023-02-02T20:55:44.898Z,3.80
2023-02-02T21:00:55.180Z,3.90
2023-02-02T21:05:58.892Z,4.00
2023-02-02T21:11:18.544Z,3.80
2023-02-02T21:16:23.690Z,3.70
2023-02-02T21:21:33.034Z,3.70
2023-02-02T21:26:36.404Z,3.70
2023-02-02T21:31:41.214Z,3.80
2023-02-02T21:36:46.991Z,3.80
2023-02-02T21:42:02.144Z,3.90
2023-02-02T21:47:34.953Z,3.90
2023-02-02T21:52:49.510Z,3.90
2023-02-02T21:58:05.737Z,3.90
2023-02-02T22:03:46.887Z,4.00
2023-02-02T22:08:55.817Z,4.10
2023-02-02T22:14:03.695Z,4.20
2023-02-02T22:19:26.928Z,4.30
2023-02-02T22:24:30.437Z,4.30
2023-02-02T22:29:36.446Z,4.40
2023-02-02T22:34:44.476Z,4.30
2023-02-02T22:39:47.737Z,4.30
2023-02-02T22:44:51.336Z,4.40
2023-02-02T22:49:56.199Z,4.30
2023-02-02T22:55:01.947Z,4.30
2023-02-02T23:00:10.566Z,4.30
2023-02-02T23:05:17.241Z,4.40
2023-02-02T23:10:25.274Z,4.40
2023-02-02T23:15:31.862Z,4.30
2023-02-02T23:20:38.577Z,4.30
2023-02-02T23:25:42.769Z,4.30
2023-02-02T23:30:46.170Z,4.30
2023-02-02T23:35:57.116Z,4.30
2023-02-02T23:41:02.652Z,4.30
2023-02-02T23:46:11.082Z,4.30
2023-02-02T23:51:18.955Z,4.40
2023-02-02T23:56:52.924Z,4.40
